Time;durP1;ratioP1;P1;durP2;ratioP2;P2;SDS_P1;SDS_P2;PMS_P1;PMS_P2;Temp;Humidity;BMP_temperature;BMP_pressure;BME280_temperature;BME280_humidity;BME280_pressure;Samples;Min_cycle;Max_cycle;Signal;HPM_P1;HPM_P2
2022/02/05 00:03:45;;;;;;;28.67;12.90;;;;;;;-3.75;57.35;99018.75;5012728;28;20111;-76
2022/02/05 00:14:09;;;;;;;34.43;14.40;;;;;;;-3.92;57.56;99024.44;4993858;28;20116;-74
2022/02/05 00:43:17;;;;;;;34.17;14.30;;;;;;;-3.95;58.33;99018.69;5025823;28;20045;-75
2022/02/05 00:45:48;;;;;;;34.47;14.57;;;;;;;-3.97;57.96;99018.09;5023230;28;20107;-77
2022/02/05 00:48:15;;;;;;;35.90;14.80;;;;;;;-3.99;58.12;99015.59;5029782;28;20053;-75
2022/02/05 00:50:49;;;;;;;38.05;16.35;;;;;;;-4.01;58.07;99017.66;5020494;28;20045;-76
2022/02/05 00:53:30;;;;;;;36.10;15.17;;;;;;;-4.01;58.03;99021.13;5019148;28;20056;-74
2022/02/05 00:56:05;;;;;;;36.67;15.57;;;;;;;-3.97;57.82;99018.88;5029619;28;20050;-74
2022/02/05 00:58:32;;;;;;;31.40;15.37;;;;;;;-4.02;58.35;99021.34;5030555;28;20045;-74
2022/02/05 01:00:58;;;;;;;34.53;15.25;;;;;;;-4.06;58.36;99020.06;5021153;28;20502;-74
2022/02/05 01:03:24;;;;;;;29.07;14.23;;;;;;;-4.04;58.04;99010.03;5028229;28;20068;-76
2022/02/05 01:05:52;;;;;;;31.40;14.43;;;;;;;-4.00;58.08;99008.59;5028161;28;20045;-74
2022/02/05 01:08:18;;;;;;;31.73;14.57;;;;;;;-4.11;58.19;98993.16;5016640;28;20111;-74
2022/02/05 01:10:45;;;;;;;34.47;15.03;;;;;;;-4.06;58.46;99006.72;5029166;28;20514;-75
2022/02/05 01:13:12;;;;;;;32.40;14.50;;;;;;;-4.10;58.49;99006.31;5022668;28;20056;-74
2022/02/05 01:15:54;;;;;;;;;;;;;;;-4.15;58.59;99008.72;5027369;28;20069;-73
2022/02/05 01:18:22;;;;;;;33.67;14.47;;;;;;;-4.17;58.76;99010.78;5025101;28;19929;-74
2022/02/05 01:23:27;;;;;;;31.93;14.80;;;;;;;-4.24;58.68;99005.41;5015876;28;20038;-75
2022/02/05 01:26:04;;;;;;;38.03;14.80;;;;;;;-4.32;58.63;98985.03;5032457;28;20046;-74
2022/02/05 01:28:33;;;;;;;35.25;14.80;;;;;;;-4.29;58.49;98990.00;5025828;28;20425;-73
2022/02/05 01:30:59;;;;;;;34.43;15.17;;;;;;;-4.28;58.23;98972.97;5034067;28;20061;-74
2022/02/05 01:55:10;;;;;;;38.47;15.60;;;;;;;-4.22;58.22;98994.53;5017296;28;20460;-70
2022/02/05 01:57:41;;;;;;;32.73;15.27;;;;;;;-4.23;58.54;98998.22;5018968;28;20053;-71
2022/02/05 02:05:39;;;;;;;33.35;15.10;;;;;;;-4.27;58.61;98990.63;5021916;28;20042;-70
2022/02/05 02:11:34;;;;;;;37.00;15.13;;;;;;;-4.24;58.41;98989.38;5031147;28;20053;-70
2022/02/05 02:14:54;;;;;;;36.57;15.53;;;;;;;-4.22;58.32;98986.53;5016670;28;20087;-71
2022/02/05 02:19:25;;;;;;;34.33;15.13;;;;;;;-4.27;58.83;98981.78;5018268;28;20053;-73
2022/02/05 02:32:11;;;;;;;36.13;16.03;;;;;;;-4.25;59.13;98966.38;5018511;28;20149;-71
2022/02/05 02:34:43;;;;;;;36.73;16.63;;;;;;;-4.20;59.06;98976.47;5026932;28;20048;-71
2022/02/05 02:37:16;;;;;;;37.33;16.40;;;;;;;-4.17;58.97;98982.25;5021848;28;20049;-70
2022/02/05 02:40:08;;;;;;;39.63;16.83;;;;;;;-4.14;58.96;98981.84;5023525;28;20077;-71
2022/02/05 02:42:35;;;;;;;42.43;17.67;;;;;;;-4.19;59.37;98984.28;5016083;28;20370;-69
2022/02/05 02:45:01;;;;;;;35.87;16.97;;;;;;;-4.10;59.13;98984.09;5021194;28;20052;-70
2022/02/05 02:47:27;;;;;;;34.90;16.53;;;;;;;-4.06;59.19;98985.34;5027385;28;20073;-71
2022/02/05 02:58:00;;;;;;;37.27;16.87;;;;;;;-4.10;59.26;98979.59;5015032;28;20050;-71
2022/02/05 03:00:27;;;;;;;34.00;15.63;;;;;;;-4.06;59.02;98980.84;5017263;28;20525;-73
2022/02/05 03:02:54;;;;;;;39.50;17.13;;;;;;;-4.06;58.95;98966.66;5019112;28;20045;-71
2022/02/05 03:05:21;;;;;;;40.17;17.23;;;;;;;-3.98;58.64;98971.84;5024610;28;20061;-72
2022/02/05 03:07:48;;;;;;;41.80;17.00;;;;;;;-4.03;58.90;98967.09;5015957;28;20203;-72
2022/02/05 03:10:15;;;;;;;36.78;16.75;;;;;;;-3.97;58.48;98964.66;5022007;28;20567;-72
2022/02/05 03:12:43;;;;;;;36.47;17.83;;;;;;;-3.96;58.10;98968.97;5027791;28;20049;-69
2022/02/05 03:15:14;;;;;;;;;;;;;;;-3.97;58.10;98973.47;5018999;28;20060;-71
2022/02/05 03:17:55;;;;;;;38.63;17.40;;;;;;;-4.01;58.03;98967.72;5019024;28;19924;-71
2022/02/05 03:20:22;;;;;;;41.13;18.23;;;;;;;-3.93;57.81;98972.06;5017442;28;20084;-71
2022/02/05 03:22:50;;;;;;;37.40;16.80;;;;;;;-3.92;57.84;98964.88;5017582;28;20060;-73
2022/02/05 03:25:15;;;;;;;42.95;18.90;;;;;;;-3.85;57.96;98958.53;5011766;28;20061;-71
2022/02/05 03:27:42;;;;;;;42.40;17.63;;;;;;;-3.70;57.24;98958.34;5014583;28;20050;-73
2022/02/05 03:30:09;;;;;;;40.33;17.77;;;;;;;-3.76;57.47;98961.00;5029408;28;20057;-70
2022/02/05 03:32:35;;;;;;;38.42;18.05;;;;;;;-3.77;57.81;98962.03;5020821;28;20553;-70
2022/02/05 03:35:01;;;;;;;39.37;17.87;;;;;;;-3.83;58.02;98954.81;5015537;28;20137;-71
2022/02/05 03:37:29;;;;;;;39.30;18.33;;;;;;;-3.99;58.48;98954.16;5023060;28;20049;-71
2022/02/05 03:39:56;;;;;;;38.17;16.37;;;;;;;-3.87;58.44;98965.09;5023005;28;20057;-71
2022/02/05 03:42:22;;;;;;;;;;;;;;;-3.89;58.60;98956.44;5027522;28;20395;-69
2022/02/05 03:44:48;;;;;;;39.53;18.20;;;;;;;-3.93;58.44;98964.03;5022116;28;19970;-70
2022/02/05 03:47:15;;;;;;;38.60;17.03;;;;;;;-3.98;58.71;98953.13;5019925;28;20060;-70
2022/02/05 03:49:41;;;;;;;43.33;17.47;;;;;;;-3.97;58.79;98960.13;5011690;28;20111;-70
2022/02/05 03:52:07;;;;;;;35.40;16.57;;;;;;;-3.94;58.98;98966.94;5013358;28;20070;-71
2022/02/05 03:54:35;;;;;;;39.87;16.90;;;;;;;-3.93;58.74;98963.22;5024245;28;20132;-71
2022/02/05 03:57:03;;;;;;;33.90;15.80;;;;;;;-3.87;58.56;98963.25;5026468;28;20148;-69
2022/02/05 03:59:29;;;;;;;36.33;17.43;;;;;;;-3.63;57.97;98966.38;5015007;28;20132;-70
2022/02/05 04:01:55;;;;;;;38.20;17.00;;;;;;;-3.66;57.99;98961.44;5026154;28;20068;-73
2022/02/05 04:04:22;;;;;;;41.63;17.40;;;;;;;-3.65;58.00;98968.44;5017072;28;20049;-71
2022/02/05 04:06:48;;;;;;;36.23;16.30;;;;;;;-3.57;57.43;98962.91;5021483;28;20049;-72
2022/02/05 04:09:20;;;;;;;35.20;16.27;;;;;;;-3.41;56.95;98963.56;5019444;28;20542;-72
2022/02/05 04:17:03;;;;;;;41.97;18.30;;;;;;;-3.28;55.98;98968.09;5025683;28;20049;-72
2022/02/05 04:19:30;;;;;;;35.58;16.38;;;;;;;-3.32;56.12;98964.97;5014340;28;20049;-72
2022/02/05 04:21:56;;;;;;;35.80;17.07;;;;;;;-3.29;56.04;98955.75;5018575;28;20323;-72
2022/02/05 04:24:22;;;;;;;42.87;17.73;;;;;;;-3.33;55.59;98927.78;5023597;28;20837;-73
2022/02/05 04:26:48;;;;;;;43.57;18.23;;;;;;;-3.14;55.74;98963.53;5025566;28;20053;-71
2022/02/05 04:29:14;;;;;;;41.47;18.70;;;;;;;-3.09;55.68;98965.63;5012472;28;20046;-72
2022/02/05 04:31:42;;;;;;;43.20;18.97;;;;;;;-3.04;55.33;98968.50;5022807;28;20050;-71
2022/02/05 04:34:10;;;;;;;43.67;18.45;;;;;;;-3.06;55.53;98962.53;5003439;28;20053;-71
2022/02/05 04:36:37;;;;;;;41.40;18.67;;;;;;;-3.09;55.40;98960.25;5021384;28;20041;-72
2022/02/05 04:39:13;;;;;;;42.70;19.58;;;;;;;-3.09;55.35;98958.44;5014679;28;20084;-71
2022/02/05 04:41:54;;;;;;;50.33;20.47;;;;;;;-3.10;55.44;98954.09;5014980;28;20505;-70
2022/02/05 04:44:45;;;;;;;45.23;20.87;;;;;;;-3.17;55.44;98972.81;5019142;28;20533;-70
2022/02/05 05:00:49;;;;;;;47.57;20.17;;;;;;;-3.56;56.05;98980.59;4990694;28;20494;-70
2022/02/05 05:06:28;;;;;;;46.67;21.23;;;;;;;-3.37;55.59;98985.34;5025535;28;20050;-71
2022/02/05 05:19:54;;;;;;;53.37;22.73;;;;;;;-3.89;56.28;98972.47;5023150;28;20103;-70
2022/02/05 05:22:21;;;;;;;48.85;22.05;;;;;;;-3.80;56.59;98968.63;5013596;28;20057;-71
2022/02/05 05:24:47;;;;;;;58.77;20.50;;;;;;;-3.70;56.05;98961.00;5025671;28;20056;-70
2022/02/05 05:27:13;;;;;;;55.47;22.27;;;;;;;-3.68;56.15;98973.34;5011381;28;20049;-70
2022/02/05 05:29:39;;;;;;;54.87;22.20;;;;;;;-3.56;56.27;98974.41;5030017;28;20172;-73
2022/02/05 05:32:07;;;;;;;45.77;21.33;;;;;;;-3.57;56.19;98959.41;5026421;28;20099;-70
2022/02/05 05:34:33;;;;;;;55.08;23.58;;;;;;;-3.61;56.67;98958.97;5027231;28;20567;-72
2022/02/05 05:37:01;;;;;;;54.20;21.80;;;;;;;-3.71;56.59;98958.56;5017508;28;20378;-73
2022/02/05 05:39:28;;;;;;;51.67;22.63;;;;;;;-3.57;56.94;98965.59;5014585;28;20228;-72
2022/02/05 05:41:54;;;;;;;56.33;23.07;;;;;;;-3.46;56.42;98964.16;5014915;28;20513;-71
2022/02/05 05:52:20;;;;;;;58.97;25.43;;;;;;;-3.42;56.23;98964.59;5014152;28;20148;-71
2022/02/05 05:54:46;;;;;;;62.27;26.20;;;;;;;-3.56;56.32;98953.88;5033775;28;20476;-73
2022/02/05 05:57:13;;;;;;;56.20;24.63;;;;;;;-3.58;56.34;98942.56;5009652;28;20041;-72
2022/02/05 05:59:40;;;;;;;53.65;22.23;;;;;;;-3.55;56.38;98946.66;5022829;28;20116;-72
2022/02/05 06:02:06;;;;;;;53.47;24.37;;;;;;;-3.56;56.34;98945.00;5018350;28;20046;-72
2022/02/05 06:04:32;;;;;;;53.13;22.93;;;;;;;-3.52;56.40;98945.44;5023654;28;20049;-71
2022/02/05 06:06:59;;;;;;;49.77;22.13;;;;;;;-3.53;56.21;98947.28;5024560;28;20045;-72
2022/02/05 06:09:26;;;;;;;50.40;22.33;;;;;;;-3.60;56.15;98912.50;5022948;28;20465;-73
2022/02/05 06:11:52;;;;;;;57.55;24.17;;;;;;;-3.20;55.53;98946.50;5022977;28;20081;-72
2022/02/05 06:14:22;;;;;;;58.30;23.90;;;;;;;-3.09;55.49;98942.38;5026194;28;20050;-72
2022/02/05 06:16:54;;;;;;;58.53;24.43;;;;;;;-3.01;55.20;98947.50;5020928;28;20417;-71
2022/02/05 06:19:21;;;;;;;57.37;24.33;;;;;;;-3.11;55.22;98933.75;5023380;28;20502;-69
2022/02/05 06:21:47;;;;;;;63.58;25.45;;;;;;;-3.13;55.48;98941.13;5024590;28;21316;-72
2022/02/05 06:24:13;;;;;;;66.57;25.17;;;;;;;-3.14;55.56;98944.81;5020652;28;20049;-73
2022/02/05 06:26:41;;;;;;;59.70;24.87;;;;;;;-3.07;55.34;98940.31;5028038;28;20041;-74
2022/02/05 06:29:07;;;;;;;63.75;27.02;;;;;;;-3.03;55.41;98938.06;5029866;28;20128;-73
2022/02/05 06:31:33;;;;;;;70.00;27.13;;;;;;;-3.16;55.45;98933.50;5013147;28;20053;-73
2022/02/05 06:33:59;;;;;;;61.20;25.00;;;;;;;-3.33;56.06;98930.44;5016377;28;20112;-73
2022/02/05 06:36:25;;;;;;;57.57;25.80;;;;;;;-3.36;56.40;98944.19;5017912;28;20042;-75
2022/02/05 06:38:52;;;;;;;59.60;25.70;;;;;;;-3.50;56.52;98927.34;5017983;28;20046;-74
2022/02/05 06:41:17;;;;;;;64.30;25.57;;;;;;;-3.41;56.51;98934.16;5020438;28;20046;-74
2022/02/05 06:43:45;;;;;;;58.50;25.00;;;;;;;-3.38;56.30;98925.72;5020841;28;20088;-74
2022/02/05 06:46:11;;;;;;;52.28;24.45;;;;;;;-3.30;56.33;98936.19;5013366;28;20528;-73
2022/02/05 06:48:37;;;;;;;60.07;26.33;;;;;;;-3.35;56.62;98924.50;5027470;28;20162;-72
2022/02/05 06:51:03;;;;;;;60.03;27.53;;;;;;;-3.23;56.69;98933.50;5029079;28;20045;-72
2022/02/05 06:53:30;;;;;;;66.17;26.90;;;;;;;-3.14;56.28;98937.63;5027594;28;20494;-72
2022/02/05 06:55:56;;;;;;;65.40;27.77;;;;;;;-3.17;56.26;98934.53;5026452;28;20053;-72
2022/02/05 06:58:22;;;;;;;68.47;28.57;;;;;;;-3.18;56.39;98933.75;5016862;28;20056;-71
2022/02/05 07:00:49;;;;;;;58.40;26.10;;;;;;;-3.10;56.10;98923.84;5026811;28;20064;-70
2022/02/05 07:03:17;;;;;;;64.95;26.60;;;;;;;-3.03;55.75;98928.16;5020368;28;20589;-72
2022/02/05 07:05:44;;;;;;;64.70;26.00;;;;;;;-3.05;55.86;98924.88;5029570;28;20042;-72
2022/02/05 07:08:10;;;;;;;66.73;27.00;;;;;;;-2.96;55.54;98927.34;5020423;28;20529;-70
2022/02/05 07:10:36;;;;;;;59.67;26.70;;;;;;;-3.04;55.53;98915.81;5013788;28;20046;-71
2022/02/05 07:15:39;;;;;;;64.87;26.27;;;;;;;-3.02;55.68;98919.09;5011400;28;20056;-71
2022/02/05 07:20:39;;;;;;;64.28;26.48;;;;;;;-2.97;55.74;98925.69;5016147;28;20132;-71
2022/02/05 07:31:21;;;;;;;76.00;27.93;;;;;;;-3.06;55.88;98915.22;5032131;28;20559;-71
2022/02/05 07:33:49;;;;;;;80.53;28.27;;;;;;;-3.04;55.87;98915.81;5029993;28;20207;-70
2022/02/05 07:36:17;;;;;;;66.73;27.03;;;;;;;-3.01;55.58;98915.41;5021542;28;20228;-70
2022/02/05 07:38:43;;;;;;;67.00;28.80;;;;;;;-2.94;55.57;98910.03;5022287;28;20107;-70
2022/02/05 07:41:10;;;;;;;70.73;29.30;;;;;;;-2.90;55.36;98907.78;5030177;28;20057;-71
2022/02/05 07:43:37;;;;;;;76.50;31.17;;;;;;;-2.92;55.64;98909.84;4985947;28;20046;-70
2022/02/05 07:46:04;;;;;;;76.67;30.57;;;;;;;-3.01;55.90;98904.69;5010834;28;20057;-71
2022/02/05 07:48:31;;;;;;;74.75;30.67;;;;;;;-2.99;55.92;98907.19;5014642;28;20041;-70
2022/02/05 07:51:00;;;;;;;74.28;31.17;;;;;;;-2.90;55.86;98910.47;5044826;28;20107;-70
2022/02/05 07:53:26;;;;;;;71.10;30.37;;;;;;;-2.79;55.87;98917.03;5011896;28;20179;-71
2022/02/05 07:55:52;;;;;;;68.10;30.00;;;;;;;-2.61;55.08;98919.03;5015859;28;20053;-72
2022/02/05 07:58:20;;;;;;;62.42;27.85;;;;;;;-2.61;54.86;98916.38;5008394;28;20073;-71
2022/02/05 08:00:47;;;;;;;68.27;27.53;;;;;;;-2.57;54.57;98914.91;5019841;28;20041;-71
2022/02/05 08:03:13;;;;;;;71.23;28.83;;;;;;;-2.31;54.01;98910.50;5012291;28;20065;-70
2022/02/05 08:05:39;;;;;;;78.33;31.47;;;;;;;-2.38;54.13;98901.66;5010435;28;20602;-69
2022/02/05 08:08:12;;;;;;;75.50;29.50;;;;;;;-2.44;54.30;98908.69;5020201;28;20088;-69
2022/02/05 08:10:47;;;;;;;75.13;30.80;;;;;;;-2.43;54.49;98896.94;5028205;28;20046;-69
2022/02/05 08:13:14;;;;;;;70.03;28.93;;;;;;;-2.32;54.33;98890.91;5020011;28;20049;-69
2022/02/05 08:15:40;;;;;;;78.90;31.30;;;;;;;-2.33;54.39;98899.19;5012604;28;20061;-70
2022/02/05 08:18:06;;;;;;;79.47;30.80;;;;;;;-2.25;54.37;98890.09;4993919;28;20056;-69
2022/02/05 08:20:32;;;;;;;74.47;30.53;;;;;;;-2.17;54.21;98882.63;5008542;28;20050;-69
2022/02/05 08:22:58;;;;;;;76.10;29.30;;;;;;;-2.25;54.60;98879.38;5010437;28;20128;-68
2022/02/05 08:25:27;;;;;;;77.63;31.63;;;;;;;-2.26;54.56;98869.66;5012163;28;20073;-70
2022/02/05 08:27:53;;;;;;;67.53;31.07;;;;;;;-2.10;54.37;98871.88;5022427;28;20054;-72
2022/02/05 08:30:19;;;;;;;70.00;29.40;;;;;;;-2.02;54.01;98874.28;5024436;28;20046;-72
2022/02/05 08:32:45;;;;;;;72.40;30.37;;;;;;;-2.04;54.14;98867.50;5013830;28;20067;-71
2022/02/05 08:35:12;;;;;;;77.67;30.90;;;;;;;-1.98;53.79;98877.38;5024747;28;20046;-72
2022/02/05 08:37:44;;;;;;;72.67;30.90;;;;;;;-1.99;53.85;98875.72;5010314;28;20080;-71
2022/02/05 08:40:12;;;;;;;74.63;32.87;;;;;;;-2.03;54.03;98866.44;5014448;28;20049;-71
2022/02/05 08:42:39;;;;;;;77.95;31.63;;;;;;;-2.00;53.75;98868.72;5013734;28;20058;-71
2022/02/05 08:45:07;;;;;;;71.20;31.52;;;;;;;-1.94;53.64;98878.56;5011445;28;20096;-71
2022/02/05 08:47:34;;;;;;;69.90;30.23;;;;;;;-1.99;53.84;98881.09;5011285;28;20053;-71
2022/02/05 08:50:00;;;;;;;72.93;31.48;;;;;;;-2.03;54.01;98871.81;5013132;28;20061;-72
2022/02/05 08:52:28;;;;;;;72.57;30.23;;;;;;;-1.93;53.85;98877.53;5023413;28;20057;-71
2022/02/05 08:54:54;;;;;;;73.88;30.02;;;;;;;-1.94;54.17;98867.84;5031147;28;20104;-71
2022/02/05 08:57:20;;;;;;;74.30;30.80;;;;;;;-1.80;53.62;98873.13;5028392;28;20553;-70
2022/02/05 08:59:56;;;;;;;72.80;30.47;;;;;;;-1.88;53.93;98868.84;5013743;28;20041;-71
2022/02/05 09:05:33;;;;;;;70.93;30.10;;;;;;;-1.93;53.93;98857.97;5015059;28;20056;-71
2022/02/05 09:07:57;;;;;;;68.63;30.37;;;;;;;-1.98;54.21;98858.63;5016293;28;20502;-71
2022/02/05 09:10:36;;;;;;;66.55;29.15;;;;;;;-1.96;53.99;98850.34;5023105;28;20085;-71
2022/02/05 09:15:34;;;;;;;64.80;29.03;;;;;;;-2.02;54.13;98846.69;5015040;28;20104;-72
2022/02/05 09:18:01;;;;;;;75.97;31.17;;;;;;;-1.93;54.18;98849.94;5008780;28;20433;-70
2022/02/05 09:20:26;;;;;;;74.00;30.27;;;;;;;-1.85;54.09;98846.97;5030937;28;20051;-71
2022/02/05 09:22:55;;;;;;;67.20;29.73;;;;;;;-1.81;54.05;98834.78;5014655;28;20061;-71
2022/02/05 09:25:22;;;;;;;71.73;31.00;;;;;;;-1.95;53.99;98807.25;5025330;28;20054;-73
2022/02/05 09:27:49;;;;;;;77.80;31.27;;;;;;;-1.71;53.80;98824.41;5014881;28;20045;-72
2022/02/05 09:30:17;;;;;;;76.53;29.88;;;;;;;-1.69;53.36;98810.78;5032326;28;20056;-71
2022/02/05 09:32:45;;;;;;;67.57;30.10;;;;;;;-1.49;53.11;98818.63;5033251;28;20057;-72
2022/02/05 09:35:12;;;;;;;66.82;29.80;;;;;;;-1.37;53.04;98813.41;5027882;28;20042;-72
2022/02/05 09:37:39;;;;;;;69.70;30.50;;;;;;;-1.18;52.35;98808.84;5015757;28;20132;-72
2022/02/05 09:40:06;;;;;;;65.83;28.47;;;;;;;-0.62;51.24;98808.06;5014093;28;20056;-73
2022/02/05 09:42:32;;;;;;;69.20;30.00;;;;;;;0.10;49.76;98791.13;5013509;28;20112;-71
2022/02/05 09:45:01;;;;;;;65.72;28.73;;;;;;;-0.04;49.57;98785.16;5021707;28;20096;-71
2022/02/05 09:47:28;;;;;;;68.40;29.73;;;;;;;-0.09;49.84;98795.75;5016357;28;20045;-72
2022/02/05 09:49:55;;;;;;;63.28;28.50;;;;;;;0.76;48.32;98792.94;5020719;28;20065;-72
2022/02/05 09:52:26;;;;;;;;;;;;;;;1.53;47.22;98784.81;4998972;28;20050;-72
2022/02/05 09:54:53;;;;;;;66.88;29.38;;;;;;;2.25;45.84;98777.97;5027345;28;19931;-72
2022/02/05 09:57:19;;;;;;;69.20;30.35;;;;;;;2.81;45.21;98776.38;5027551;28;20049;-71
2022/02/05 09:59:50;;;;;;;67.70;30.58;;;;;;;3.11;44.64;98778.69;5019220;28;20050;-71
2022/02/05 10:02:29;;;;;;;68.82;30.27;;;;;;;2.69;45.35;98776.50;4999489;28;20406;-73
2022/02/05 10:04:59;;;;;;;66.18;31.45;;;;;;;2.27;45.50;98764.25;5029546;28;20112;-71
2022/02/05 10:07:26;;;;;;;65.70;29.83;;;;;;;2.09;45.43;98755.34;5012661;28;20418;-71
2022/02/05 10:09:57;;;;;;;65.07;28.90;;;;;;;1.74;45.85;98769.84;5012941;28;20510;-71
2022/02/05 10:12:23;;;;;;;67.93;30.13;;;;;;;0.83;46.50;98772.09;5022003;28;20426;-69
2022/02/05 10:14:55;;;;;;;60.88;28.23;;;;;;;0.18;47.47;98768.47;5014874;28;20100;-70
2022/02/05 10:17:36;;;;;;;66.10;29.25;;;;;;;-0.07;48.20;98764.13;5017956;28;20052;-70
2022/02/05 10:20:06;;;;;;;67.55;28.70;;;;;;;-0.09;48.25;98760.81;5032611;28;20053;-71
2022/02/05 10:22:37;;;;;;;63.20;28.95;;;;;;;-0.05;47.96;98758.50;5016122;28;20056;-71
2022/02/05 10:25:14;;;;;;;65.95;28.75;;;;;;;0.02;48.22;98755.72;5013901;28;20050;-68
2022/02/05 10:27:42;;;;;;;60.42;27.88;;;;;;;0.27;48.01;98752.81;5014571;28;20049;-72
2022/02/05 10:30:11;;;;;;;56.00;27.55;;;;;;;1.38;46.13;98751.13;5015742;28;20042;-73
2022/02/05 10:32:42;;;;;;;56.25;26.15;;;;;;;1.45;45.96;98744.78;5027828;28;20041;-69
2022/02/05 10:38:03;;;;;;;55.03;25.95;;;;;;;2.82;44.02;98740.25;5012696;28;20501;-69
2022/02/05 10:40:49;;;;;;;51.53;24.73;;;;;;;3.73;42.22;98729.91;5013852;28;20104;-70
2022/02/05 10:43:31;;;;;;;47.40;22.73;;;;;;;4.45;40.72;98731.56;5025384;28;20046;-70
2022/02/05 10:46:01;;;;;;;47.40;19.90;;;;;;;4.93;39.42;98726.97;5014207;28;20048;-70
2022/02/05 10:48:28;;;;;;;42.25;19.95;;;;;;;5.44;38.00;98706.53;5017543;28;20086;-68
2022/02/05 10:50:58;;;;;;;47.63;22.33;;;;;;;6.37;37.18;98714.75;5013693;28;20061;-69
2022/02/05 10:53:52;;;;;;;44.00;22.75;;;;;;;6.88;36.18;98710.31;5032123;28;20044;-69
2022/02/05 11:07:00;;;;;;;52.08;25.83;;;;;;;8.87;33.13;98687.63;5013920;28;20107;-69
2022/02/05 11:09:26;;;;;;;48.70;24.38;;;;;;;9.02;32.54;98685.81;5020710;28;20041;-68
2022/02/05 11:20:04;;;;;;;55.80;27.10;;;;;;;9.94;30.90;98671.97;5047619;28;20054;-69
2022/02/05 11:22:34;;;;;;;63.25;28.42;;;;;;;9.63;31.65;98664.25;4997055;28;20063;-69
2022/02/05 11:25:02;;;;;;;47.83;26.60;;;;;;;9.21;31.83;98669.50;5016395;28;20038;-69
2022/02/05 11:27:29;;;;;;;53.58;27.42;;;;;;;8.84;32.45;98662.88;5024669;28;20049;-70
2022/02/05 11:29:55;;;;;;;49.88;27.25;;;;;;;8.61;32.35;98657.13;5021455;28;20053;-69
2022/02/05 11:32:27;;;;;;;50.92;25.50;;;;;;;8.51;31.77;98644.44;5024485;28;20069;-69
2022/02/05 11:35:06;;;;;;;50.22;24.98;;;;;;;8.61;31.69;98651.69;5015035;28;20077;-70
2022/02/05 11:37:52;;;;;;;45.35;24.02;;;;;;;8.63;31.37;98653.03;5021751;28;20079;-69
2022/02/05 11:40:46;;;;;;;47.60;23.58;;;;;;;8.74;31.18;98644.72;5008444;28;20049;-70
2022/02/05 11:43:23;;;;;;;44.22;20.88;;;;;;;8.56;31.03;98646.31;5021388;28;20120;-70
2022/02/05 11:46:08;;;;;;;41.38;19.15;;;;;;;8.48;31.71;98643.06;5012092;28;20049;-69
2022/02/05 11:48:40;;;;;;;42.47;20.52;;;;;;;8.46;31.58;98642.53;5015438;28;20042;-68
2022/02/05 11:51:12;;;;;;;45.15;21.70;;;;;;;8.55;31.24;98642.75;5022137;28;20049;-68
2022/02/05 11:54:10;;;;;;;42.53;20.13;;;;;;;8.31;31.15;98637.25;5018154;28;20414;-71
2022/02/05 11:57:07;;;;;;;38.53;19.75;;;;;;;8.18;30.72;98638.75;5012452;28;20060;-70
2022/02/05 12:00:07;;;;;;;32.05;15.25;;;;;;;8.00;30.75;98640.28;5014013;28;20501;-70
2022/02/05 12:02:41;;;;;;;28.00;12.95;;;;;;;7.99;30.17;98647.66;5014394;28;20136;-69
2022/02/05 12:05:11;;;;;;;25.67;13.13;;;;;;;7.70;29.93;98648.41;5022770;28;20050;-70
2022/02/05 12:07:58;;;;;;;27.25;12.15;;;;;;;7.40;30.55;98639.38;5024965;28;20057;-70
2022/02/05 12:10:34;;;;;;;22.00;10.25;;;;;;;7.47;30.40;98630.91;5019321;28;20060;-70
2022/02/05 12:13:15;;;;;;;23.75;11.18;;;;;;;7.08;31.00;98636.00;5026989;28;20049;-68
2022/02/05 12:15:42;;;;;;;19.45;9.45;;;;;;;7.23;30.88;98631.59;5011300;28;20054;-68
2022/02/05 12:20:58;;;;;;;;;;;;;;;6.57;31.38;98637.06;5012409;28;20042;-69
2022/02/05 12:26:17;;;;;;;29.88;14.77;;;;;;;6.26;32.41;98626.28;5030264;28;20084;-70
2022/02/05 12:28:45;;;;;;;28.85;15.40;;;;;;;5.89;32.79;98628.22;5009022;28;20494;-71
2022/02/05 12:31:25;;;;;;;;;;;;;;;5.90;33.15;98620.88;5030791;28;20553;-72
2022/02/05 12:33:54;;;;;;;35.97;17.20;;;;;;;5.76;33.34;98626.84;5023553;28;19979;-71
2022/02/05 12:36:26;;;;;;;30.00;15.23;;;;;;;5.72;33.09;98597.84;4993273;28;20046;-70
2022/02/05 12:38:57;;;;;;;31.30;15.95;;;;;;;5.77;33.33;98620.31;5012733;28;20046;-72
2022/02/05 12:41:26;;;;;;;31.17;15.18;;;;;;;5.59;33.19;98623.59;5011272;28;20100;-71
2022/02/05 12:43:56;;;;;;;35.03;16.85;;;;;;;5.14;33.73;98617.84;5028805;28;20103;-72
2022/02/05 12:46:27;;;;;;;32.45;16.65;;;;;;;5.44;33.32;98614.34;5011465;28;20050;-70
2022/02/05 12:48:59;;;;;;;34.20;17.25;;;;;;;5.49;33.82;98613.56;5026497;28;20058;-70
2022/02/05 12:51:29;;;;;;;35.75;18.00;;;;;;;5.23;33.59;98591.88;5015109;28;20046;-71
2022/02/05 12:54:04;;;;;;;31.52;16.90;;;;;;;5.15;34.23;98606.75;5011376;28;20116;-71
2022/02/05 12:56:36;;;;;;;36.90;18.35;;;;;;;5.16;34.46;98605.66;5014503;28;20070;-70
2022/02/05 12:59:05;;;;;;;36.10;17.58;;;;;;;4.93;34.44;98612.38;5012110;28;20124;-71
2022/02/05 13:01:33;;;;;;;38.72;18.55;;;;;;;5.01;34.65;98603.72;5024793;28;20108;-71
2022/02/05 13:04:12;;;;;;;36.83;18.65;;;;;;;5.11;34.72;98605.66;5001668;28;20053;-72
2022/02/05 13:06:39;;;;;;;40.00;19.85;;;;;;;4.72;35.31;98614.22;5022684;28;20045;-73
2022/02/05 13:09:18;;;;;;;44.05;19.50;;;;;;;4.61;35.33;98616.06;4996877;28;20100;-71
2022/02/05 13:11:45;;;;;;;39.78;19.95;;;;;;;4.13;36.12;98599.84;5011872;28;20050;-71
2022/02/05 13:14:11;;;;;;;42.00;19.60;;;;;;;4.07;36.39;98613.34;5016858;28;20506;-69
2022/02/05 13:16:44;;;;;;;44.80;20.58;;;;;;;3.87;36.66;98602.38;5013168;28;20124;-71
2022/02/05 13:19:23;;;;;;;42.30;20.38;;;;;;;3.58;37.07;98595.41;5019657;28;20053;-70
2022/02/05 13:27:46;;;;;;;38.83;20.35;;;;;;;2.46;39.41;98591.31;5011700;28;20057;-74
2022/02/05 13:35:59;;;;;;;41.65;18.95;;;;;;;1.19;41.36;98572.75;5022264;28;20510;-73
2022/02/05 13:38:29;;;;;;;47.83;21.63;;;;;;;1.06;41.56;98576.59;5011263;28;20084;-75
2022/02/05 13:41:02;;;;;;;43.50;19.15;;;;;;;0.52;42.62;98574.25;5011275;28;20050;-74
2022/02/05 13:43:42;;;;;;;43.67;19.60;;;;;;;0.47;42.71;98587.56;5024753;28;20395;-73
2022/02/05 13:46:13;;;;;;;44.30;18.13;;;;;;;0.16;43.13;98586.94;5027012;28;20057;-72
2022/02/05 13:48:39;;;;;;;41.33;18.92;;;;;;;0.12;43.01;98587.41;5022308;28;20044;-73
2022/02/05 13:51:06;;;;;;;45.03;19.75;;;;;;;-0.20;44.19;98585.09;5023980;28;20041;-73
2022/02/05 13:53:33;;;;;;;43.88;19.63;;;;;;;-0.35;44.41;98576.69;5013376;28;20096;-73
2022/02/05 13:56:04;;;;;;;44.20;19.77;;;;;;;-0.43;44.83;98580.53;5014689;28;20054;-72
2022/02/05 13:58:38;;;;;;;41.33;19.48;;;;;;;-0.49;44.99;98581.47;5014207;28;20323;-73
2022/02/05 14:01:05;;;;;;;45.00;18.95;;;;;;;-0.66;45.19;98579.47;5027463;28;20507;-73
2022/02/05 14:03:32;;;;;;;46.03;21.07;;;;;;;-0.70;45.26;98570.25;5027724;28;20536;-74
2022/02/05 14:06:00;;;;;;;;;;;;;;;-0.56;45.09;98576.19;5025493;28;20077;-71
2022/02/05 14:08:27;;;;;;;44.92;20.65;;;;;;;-0.65;45.24;98572.22;5014548;28;20329;-70
2022/02/05 14:10:58;;;;;;;41.55;20.73;;;;;;;-0.77;45.61;98570.34;5023484;28;20054;-75
2022/02/05 14:13:25;;;;;;;48.78;21.77;;;;;;;-0.78;45.56;98574.06;5019513;28;20046;-74
2022/02/05 14:15:58;;;;;;;51.70;23.23;;;;;;;-0.78;45.41;98571.41;5022496;28;20488;-71
2022/02/05 14:18:28;;;;;;;48.92;23.00;;;;;;;-0.69;45.17;98561.13;5014755;28;20049;-73
2022/02/05 14:20:57;;;;;;;46.75;22.63;;;;;;;-0.93;45.79;98562.97;5018236;28;20045;-72
2022/02/05 14:23:24;;;;;;;50.65;22.38;;;;;;;-1.05;46.29;98536.91;5028866;28;20046;-73
2022/02/05 14:25:59;;;;;;;46.67;22.25;;;;;;;-0.94;46.13;98553.25;5023193;28;20788;-73
2022/02/05 14:28:33;;;;;;;46.50;21.70;;;;;;;-1.05;46.52;98558.38;5009446;28;20092;-74
2022/02/05 14:31:09;;;;;;;49.50;22.05;;;;;;;-1.41;47.20;98538.63;5013905;28;20053;-73
2022/02/05 14:41:57;;;;;;;49.28;21.25;;;;;;;-1.63;48.41;98565.13;5020276;28;20049;-72
2022/02/05 14:44:23;;;;;;;45.50;20.80;;;;;;;-1.71;48.44;98563.59;5018155;28;20167;-71
2022/02/05 14:46:51;;;;;;;44.85;19.42;;;;;;;-1.81;48.87;98572.13;5025790;28;20107;-72
2022/02/05 14:49:17;;;;;;;51.57;20.37;;;;;;;-1.91;49.07;98575.34;5027764;28;20084;-72
2022/02/05 14:51:44;;;;;;;45.00;20.67;;;;;;;-2.09;49.23;98560.09;5011717;28;20212;-73